sensor_id;sensor_type;location;lat;lon;timestamp;P1;durP1;ratioP1;P2;durP2;ratioP2
45842;SDS011;31563;51.744;8.252;2022-12-07T00:00:12;4.85;;;4.40;;
45842;SDS011;31563;51.744;8.252;2022-12-07T00:02:42;5.32;;;4.30;;
45842;SDS011;31563;51.744;8.252;2022-12-07T00:05:21;4.38;;;3.97;;
45842;SDS011;31563;51.744;8.252;2022-12-07T00:08:04;4.75;;;4.35;;
45842;SDS011;31563;51.744;8.252;2022-12-07T00:10:33;4.15;;;3.75;;
45842;SDS011;31563;51.744;8.252;2022-12-07T00:13:02;4.85;;;4.43;;
45842;SDS011;31563;51.744;8.252;2022-12-07T00:15:31;5.25;;;4.00;;
45842;SDS011;31563;51.744;8.252;2022-12-07T00:18:02;5.30;;;4.80;;
45842;SDS011;31563;51.744;8.252;2022-12-07T00:20:30;4.45;;;4.05;;
45842;SDS011;31563;51.744;8.252;2022-12-07T00:22:59;6.07;;;5.22;;
45842;SDS011;31563;51.744;8.252;2022-12-07T00:25:27;5.47;;;4.40;;
45842;SDS011;31563;51.744;8.252;2022-12-07T00:27:56;5.68;;;4.95;;
45842;SDS011;31563;51.744;8.252;2022-12-07T00:30:26;5.20;;;4.70;;
45842;SDS011;31563;51.744;8.252;2022-12-07T00:32:55;5.75;;;5.03;;
45842;SDS011;31563;51.744;8.252;2022-12-07T00:35:29;5.22;;;4.72;;
45842;SDS011;31563;51.744;8.252;2022-12-07T00:37:58;5.00;;;4.50;;
45842;SDS011;31563;51.744;8.252;2022-12-07T00:40:26;5.65;;;5.15;;
45842;SDS011;31563;51.744;8.252;2022-12-07T00:42:55;4.82;;;4.40;;
45842;SDS011;31563;51.744;8.252;2022-12-07T00:45:56;4.95;;;4.45;;
45842;SDS011;31563;51.744;8.252;2022-12-07T00:50:53;5.07;;;4.57;;
45842;SDS011;31563;51.744;8.252;2022-12-07T00:53:21;4.97;;;4.47;;
45842;SDS011;31563;51.744;8.252;2022-12-07T00:55:50;5.68;;;5.07;;
45842;SDS011;31563;51.744;8.252;2022-12-07T00:58:19;4.97;;;4.47;;
45842;SDS011;31563;51.744;8.252;2022-12-07T01:00:47;4.50;;;4.10;;
45842;SDS011;31563;51.744;8.252;2022-12-07T01:03:18;4.72;;;4.32;;
45842;SDS011;31563;51.744;8.252;2022-12-07T01:05:50;5.10;;;4.63;;
45842;SDS011;31563;51.744;8.252;2022-12-07T01:08:19;5.05;;;4.57;;
45842;SDS011;31563;51.744;8.252;2022-12-07T01:10:48;5.05;;;4.65;;
45842;SDS011;31563;51.744;8.252;2022-12-07T01:13:19;5.15;;;4.65;;
45842;SDS011;31563;51.744;8.252;2022-12-07T01:15:59;4.75;;;4.30;;
45842;SDS011;31563;51.744;8.252;2022-12-07T01:18:53;4.50;;;4.10;;
45842;SDS011;31563;51.744;8.252;2022-12-07T01:21:36;4.53;;;4.13;;
45842;SDS011;31563;51.744;8.252;2022-12-07T01:24:07;4.43;;;4.03;;
45842;SDS011;31563;51.744;8.252;2022-12-07T01:26:51;4.50;;;4.10;;
45842;SDS011;31563;51.744;8.252;2022-12-07T01:29:28;4.80;;;4.40;;
45842;SDS011;31563;51.744;8.252;2022-12-07T01:32:01;4.78;;;4.28;;
45842;SDS011;31563;51.744;8.252;2022-12-07T01:34:48;4.22;;;3.92;;
45842;SDS011;31563;51.744;8.252;2022-12-07T01:37:16;4.63;;;4.22;;
45842;SDS011;31563;51.744;8.252;2022-12-07T01:39:47;4.70;;;4.30;;
45842;SDS011;31563;51.744;8.252;2022-12-07T01:42:16;5.05;;;4.35;;
45842;SDS011;31563;51.744;8.252;2022-12-07T01:47:51;4.43;;;4.03;;
45842;SDS011;31563;51.744;8.252;2022-12-07T01:50:32;3.97;;;3.67;;
45842;SDS011;31563;51.744;8.252;2022-12-07T01:53:01;3.90;;;3.60;;
45842;SDS011;31563;51.744;8.252;2022-12-07T01:55:34;4.32;;;3.92;;
45842;SDS011;31563;51.744;8.252;2022-12-07T01:58:07;4.50;;;4.10;;
45842;SDS011;31563;51.744;8.252;2022-12-07T02:00:36;4.28;;;3.88;;
45842;SDS011;31563;51.744;8.252;2022-12-07T02:03:05;4.03;;;3.72;;
45842;SDS011;31563;51.744;8.252;2022-12-07T02:05:38;3.85;;;3.55;;
45842;SDS011;31563;51.744;8.252;2022-12-07T02:08:08;4.85;;;4.05;;
45842;SDS011;31563;51.744;8.252;2022-12-07T02:10:39;4.15;;;3.75;;
45842;SDS011;31563;51.744;8.252;2022-12-07T02:13:09;4.20;;;3.80;;
45842;SDS011;31563;51.744;8.252;2022-12-07T02:15:44;3.85;;;3.42;;
45842;SDS011;31563;51.744;8.252;2022-12-07T02:18:23;4.38;;;3.65;;
45842;SDS011;31563;51.744;8.252;2022-12-07T02:21:01;3.67;;;3.33;;
45842;SDS011;31563;51.744;8.252;2022-12-07T02:23:39;4.13;;;3.63;;
45842;SDS011;31563;51.744;8.252;2022-12-07T02:29:22;4.40;;;4.00;;
45842;SDS011;31563;51.744;8.252;2022-12-07T02:31:54;3.83;;;3.53;;
45842;SDS011;31563;51.744;8.252;2022-12-07T02:34:33;4.05;;;3.72;;
45842;SDS011;31563;51.744;8.252;2022-12-07T02:37:09;3.63;;;3.33;;
45842;SDS011;31563;51.744;8.252;2022-12-07T02:39:42;4.10;;;3.70;;
45842;SDS011;31563;51.744;8.252;2022-12-07T02:42:17;3.42;;;3.08;;
45842;SDS011;31563;51.744;8.252;2022-12-07T02:44:52;3.40;;;3.10;;
45842;SDS011;31563;51.744;8.252;2022-12-07T02:47:21;3.38;;;3.08;;
45842;SDS011;31563;51.744;8.252;2022-12-07T02:49:52;3.33;;;3.03;;
45842;SDS011;31563;51.744;8.252;2022-12-07T02:52:20;4.50;;;3.50;;
45842;SDS011;31563;51.744;8.252;2022-12-07T02:54:49;3.20;;;2.90;;
45842;SDS011;31563;51.744;8.252;2022-12-07T02:57:28;3.40;;;3.10;;
45842;SDS011;31563;51.744;8.252;2022-12-07T03:00:10;3.58;;;3.13;;
45842;SDS011;31563;51.744;8.252;2022-12-07T03:02:46;5.30;;;3.30;;
45842;SDS011;31563;51.744;8.252;2022-12-07T03:05:25;3.42;;;3.13;;
45842;SDS011;31563;51.744;8.252;2022-12-07T03:08:07;3.30;;;3.00;;
45842;SDS011;31563;51.744;8.252;2022-12-07T03:10:43;3.50;;;3.20;;
45842;SDS011;31563;51.744;8.252;2022-12-07T03:13:22;3.63;;;3.10;;
45842;SDS011;31563;51.744;8.252;2022-12-07T03:15:55;3.42;;;3.13;;
45842;SDS011;31563;51.744;8.252;2022-12-07T03:18:31;3.53;;;3.22;;
45842;SDS011;31563;51.744;8.252;2022-12-07T03:21:04;3.78;;;2.90;;
45842;SDS011;31563;51.744;8.252;2022-12-07T03:23:35;3.13;;;2.83;;
45842;SDS011;31563;51.744;8.252;2022-12-07T03:26:08;2.92;;;2.67;;
45842;SDS011;31563;51.744;8.252;2022-12-07T03:28:40;3.55;;;3.17;;
45842;SDS011;31563;51.744;8.252;2022-12-07T03:31:15;3.35;;;3.05;;
45842;SDS011;31563;51.744;8.252;2022-12-07T03:33:49;2.83;;;2.50;;
45842;SDS011;31563;51.744;8.252;2022-12-07T03:36:21;3.17;;;2.88;;
45842;SDS011;31563;51.744;8.252;2022-12-07T03:38:57;3.65;;;3.25;;
45842;SDS011;31563;51.744;8.252;2022-12-07T03:41:31;3.03;;;2.78;;
45842;SDS011;31563;51.744;8.252;2022-12-07T03:44:10;3.67;;;2.90;;
45842;SDS011;31563;51.744;8.252;2022-12-07T03:46:44;2.53;;;2.33;;
45842;SDS011;31563;51.744;8.252;2022-12-07T03:49:18;3.25;;;2.70;;
45842;SDS011;31563;51.744;8.252;2022-12-07T03:51:54;2.90;;;2.40;;
45842;SDS011;31563;51.744;8.252;2022-12-07T03:54:29;3.55;;;2.92;;
45842;SDS011;31563;51.744;8.252;2022-12-07T03:57:00;3.80;;;3.20;;
45842;SDS011;31563;51.744;8.252;2022-12-07T03:59:30;3.07;;;2.77;;
45842;SDS011;31563;51.744;8.252;2022-12-07T04:02:03;3.13;;;2.55;;
45842;SDS011;31563;51.744;8.252;2022-12-07T04:04:33;3.63;;;2.60;;
45842;SDS011;31563;51.744;8.252;2022-12-07T04:07:02;3.13;;;2.58;;
45842;SDS011;31563;51.744;8.252;2022-12-07T04:09:32;2.55;;;2.15;;
45842;SDS011;31563;51.744;8.252;2022-12-07T04:12:00;3.17;;;2.88;;
45842;SDS011;31563;51.744;8.252;2022-12-07T04:14:29;3.10;;;2.53;;
45842;SDS011;31563;51.744;8.252;2022-12-07T04:16:58;2.83;;;2.60;;
45842;SDS011;31563;51.744;8.252;2022-12-07T04:19:28;3.47;;;2.97;;
45842;SDS011;31563;51.744;8.252;2022-12-07T04:21:58;2.92;;;2.63;;
45842;SDS011;31563;51.744;8.252;2022-12-07T04:24:27;3.05;;;2.67;;
45842;SDS011;31563;51.744;8.252;2022-12-07T04:26:56;3.03;;;2.72;;
45842;SDS011;31563;51.744;8.252;2022-12-07T04:29:25;3.75;;;2.38;;
45842;SDS011;31563;51.744;8.252;2022-12-07T04:31:53;2.97;;;2.30;;
45842;SDS011;31563;51.744;8.252;2022-12-07T04:34:22;2.92;;;2.63;;
45842;SDS011;31563;51.744;8.252;2022-12-07T04:36:52;2.67;;;2.47;;
45842;SDS011;31563;51.744;8.252;2022-12-07T04:39:21;3.22;;;2.53;;
45842;SDS011;31563;51.744;8.252;2022-12-07T04:41:51;2.92;;;2.67;;
45842;SDS011;31563;51.744;8.252;2022-12-07T04:44:20;4.68;;;2.78;;
45842;SDS011;31563;51.744;8.252;2022-12-07T04:46:49;2.65;;;2.30;;
45842;SDS011;31563;51.744;8.252;2022-12-07T04:49:18;2.65;;;2.28;;
45842;SDS011;31563;51.744;8.252;2022-12-07T04:51:47;3.50;;;2.73;;
45842;SDS011;31563;51.744;8.252;2022-12-07T04:54:17;2.88;;;2.67;;
45842;SDS011;31563;51.744;8.252;2022-12-07T04:56:45;2.70;;;2.50;;
45842;SDS011;31563;51.744;8.252;2022-12-07T04:59:15;2.95;;;2.70;;
45842;SDS011;31563;51.744;8.252;2022-12-07T05:01:44;3.38;;;2.70;;
45842;SDS011;31563;51.744;8.252;2022-12-07T05:04:12;2.50;;;2.30;;
45842;SDS011;31563;51.744;8.252;2022-12-07T05:06:42;2.88;;;2.35;;
45842;SDS011;31563;51.744;8.252;2022-12-07T05:09:11;2.75;;;2.35;;
45842;SDS011;31563;51.744;8.252;2022-12-07T05:11:41;2.53;;;2.30;;
45842;SDS011;31563;51.744;8.252;2022-12-07T05:14:11;2.95;;;2.67;;
45842;SDS011;31563;51.744;8.252;2022-12-07T05:16:41;4.03;;;2.88;;
45842;SDS011;31563;51.744;8.252;2022-12-07T05:21:39;3.08;;;2.30;;
45842;SDS011;31563;51.744;8.252;2022-12-07T05:24:08;2.80;;;2.47;;
45842;SDS011;31563;51.744;8.252;2022-12-07T05:26:39;9.85;;;7.10;;
45842;SDS011;31563;51.744;8.252;2022-12-07T05:29:10;8.23;;;6.60;;
45842;SDS011;31563;51.744;8.252;2022-12-07T05:31:39;7.38;;;5.72;;
45842;SDS011;31563;51.744;8.252;2022-12-07T05:34:07;6.63;;;5.15;;
45842;SDS011;31563;51.744;8.252;2022-12-07T05:36:36;6.13;;;5.30;;
45842;SDS011;31563;51.744;8.252;2022-12-07T05:39:04;5.75;;;4.22;;
45842;SDS011;31563;51.744;8.252;2022-12-07T05:41:33;5.47;;;4.20;;
45842;SDS011;31563;51.744;8.252;2022-12-07T05:44:21;5.57;;;4.03;;
45842;SDS011;31563;51.744;8.252;2022-12-07T05:46:49;4.85;;;3.72;;
45842;SDS011;31563;51.744;8.252;2022-12-07T05:49:17;5.13;;;3.50;;
45842;SDS011;31563;51.744;8.252;2022-12-07T05:51:46;4.68;;;3.70;;
45842;SDS011;31563;51.744;8.252;2022-12-07T05:54:14;5.22;;;2.80;;
45842;SDS011;31563;51.744;8.252;2022-12-07T05:56:43;5.18;;;2.97;;
45842;SDS011;31563;51.744;8.252;2022-12-07T05:59:11;4.93;;;3.03;;
45842;SDS011;31563;51.744;8.252;2022-12-07T06:01:55;5.00;;;2.85;;
45842;SDS011;31563;51.744;8.252;2022-12-07T06:04:25;4.28;;;2.35;;
45842;SDS011;31563;51.744;8.252;2022-12-07T06:06:55;3.47;;;2.28;;
45842;SDS011;31563;51.744;8.252;2022-12-07T06:09:24;3.90;;;2.10;;
45842;SDS011;31563;51.744;8.252;2022-12-07T06:11:53;2.50;;;2.17;;
45842;SDS011;31563;51.744;8.252;2022-12-07T06:14:39;5.15;;;2.50;;
45842;SDS011;31563;51.744;8.252;2022-12-07T06:17:09;3.63;;;2.00;;
45842;SDS011;31563;51.744;8.252;2022-12-07T06:19:38;4.30;;;2.03;;
45842;SDS011;31563;51.744;8.252;2022-12-07T06:22:06;4.68;;;2.38;;
45842;SDS011;31563;51.744;8.252;2022-12-07T06:24:35;4.63;;;2.10;;
45842;SDS011;31563;51.744;8.252;2022-12-07T06:27:04;3.20;;;1.88;;
45842;SDS011;31563;51.744;8.252;2022-12-07T06:29:33;5.78;;;1.75;;
45842;SDS011;31563;51.744;8.252;2022-12-07T06:32:01;5.03;;;2.55;;
45842;SDS011;31563;51.744;8.252;2022-12-07T06:34:31;5.65;;;2.30;;
45842;SDS011;31563;51.744;8.252;2022-12-07T06:36:59;2.28;;;1.30;;
45842;SDS011;31563;51.744;8.252;2022-12-07T06:39:28;3.80;;;1.80;;
45842;SDS011;31563;51.744;8.252;2022-12-07T06:41:57;3.63;;;1.85;;
45842;SDS011;31563;51.744;8.252;2022-12-07T06:44:25;3.72;;;1.92;;
45842;SDS011;31563;51.744;8.252;2022-12-07T06:46:54;4.75;;;2.17;;
45842;SDS011;31563;51.744;8.252;2022-12-07T06:49:44;3.80;;;1.60;;
45842;SDS011;31563;51.744;8.252;2022-12-07T06:52:12;3.78;;;2.05;;
45842;SDS011;31563;51.744;8.252;2022-12-07T06:54:40;5.35;;;2.10;;
45842;SDS011;31563;51.744;8.252;2022-12-07T06:57:08;4.13;;;2.42;;
45842;SDS011;31563;51.744;8.252;2022-12-07T06:59:37;3.90;;;2.40;;
45842;SDS011;31563;51.744;8.252;2022-12-07T07:02:05;4.45;;;2.15;;
45842;SDS011;31563;51.744;8.252;2022-12-07T07:04:34;4.72;;;1.63;;
45842;SDS011;31563;51.744;8.252;2022-12-07T07:07:04;4.53;;;2.15;;
45842;SDS011;31563;51.744;8.252;2022-12-07T07:09:32;4.90;;;2.38;;
45842;SDS011;31563;51.744;8.252;2022-12-07T07:12:00;3.08;;;1.77;;
45842;SDS011;31563;51.744;8.252;2022-12-07T07:14:29;2.45;;;1.80;;
45842;SDS011;31563;51.744;8.252;2022-12-07T07:16:57;4.50;;;2.10;;
45842;SDS011;31563;51.744;8.252;2022-12-07T07:19:26;5.22;;;2.63;;
45842;SDS011;31563;51.744;8.252;2022-12-07T07:21:55;3.92;;;2.50;;
45842;SDS011;31563;51.744;8.252;2022-12-07T07:24:24;4.22;;;1.98;;
45842;SDS011;31563;51.744;8.252;2022-12-07T07:26:53;3.17;;;1.73;;
45842;SDS011;31563;51.744;8.252;2022-12-07T07:29:21;4.15;;;2.25;;
45842;SDS011;31563;51.744;8.252;2022-12-07T07:31:50;5.20;;;1.97;;
45842;SDS011;31563;51.744;8.252;2022-12-07T07:34:19;2.65;;;1.88;;
45842;SDS011;31563;51.744;8.252;2022-12-07T07:36:48;3.92;;;1.83;;
45842;SDS011;31563;51.744;8.252;2022-12-07T07:39:16;4.80;;;1.92;;
45842;SDS011;31563;51.744;8.252;2022-12-07T07:41:46;2.55;;;1.50;;
45842;SDS011;31563;51.744;8.252;2022-12-07T07:44:15;3.13;;;1.60;;
45842;SDS011;31563;51.744;8.252;2022-12-07T07:46:43;3.80;;;2.63;;
45842;SDS011;31563;51.744;8.252;2022-12-07T07:49:14;3.28;;;1.38;;
45842;SDS011;31563;51.744;8.252;2022-12-07T07:51:43;3.10;;;1.73;;
45842;SDS011;31563;51.744;8.252;2022-12-07T07:54:12;3.20;;;1.48;;
45842;SDS011;31563;51.744;8.252;2022-12-07T07:56:40;2.55;;;1.52;;
45842;SDS011;31563;51.744;8.252;2022-12-07T07:59:10;2.65;;;1.63;;
45842;SDS011;31563;51.744;8.252;2022-12-07T08:01:38;2.97;;;1.40;;
45842;SDS011;31563;51.744;8.252;2022-12-07T08:04:06;2.88;;;1.35;;
45842;SDS011;31563;51.744;8.252;2022-12-07T08:06:35;3.05;;;1.63;;
45842;SDS011;31563;51.744;8.252;2022-12-07T08:09:03;2.38;;;1.60;;
45842;SDS011;31563;51.744;8.252;2022-12-07T08:11:32;1.92;;;1.58;;
45842;SDS011;31563;51.744;8.252;2022-12-07T08:14:01;2.88;;;1.50;;
45842;SDS011;31563;51.744;8.252;2022-12-07T08:16:32;3.17;;;1.52;;
45842;SDS011;31563;51.744;8.252;2022-12-07T08:19:09;3.40;;;1.55;;
45842;SDS011;31563;51.744;8.252;2022-12-07T08:21:37;2.05;;;1.27;;
45842;SDS011;31563;51.744;8.252;2022-12-07T08:24:06;1.80;;;1.30;;
45842;SDS011;31563;51.744;8.252;2022-12-07T08:26:34;2.58;;;1.40;;
45842;SDS011;31563;51.744;8.252;2022-12-07T08:29:03;3.35;;;1.20;;
45842;SDS011;31563;51.744;8.252;2022-12-07T08:31:33;2.15;;;1.25;;
45842;SDS011;31563;51.744;8.252;2022-12-07T08:34:01;2.88;;;1.10;;
45842;SDS011;31563;51.744;8.252;2022-12-07T08:36:29;2.90;;;1.30;;
45842;SDS011;31563;51.744;8.252;2022-12-07T08:38:58;4.05;;;1.35;;
45842;SDS011;31563;51.744;8.252;2022-12-07T08:41:46;1.88;;;1.17;;
45842;SDS011;31563;51.744;8.252;2022-12-07T08:44:15;2.90;;;1.40;;
45842;SDS011;31563;51.744;8.252;2022-12-07T08:46:45;3.92;;;1.52;;
45842;SDS011;31563;51.744;8.252;2022-12-07T08:49:17;3.25;;;1.75;;
45842;SDS011;31563;51.744;8.252;2022-12-07T08:51:47;3.05;;;1.38;;
45842;SDS011;31563;51.744;8.252;2022-12-07T08:54:16;3.05;;;1.30;;
45842;SDS011;31563;51.744;8.252;2022-12-07T08:56:46;4.43;;;1.60;;
45842;SDS011;31563;51.744;8.252;2022-12-07T08:59:24;3.17;;;1.30;;
45842;SDS011;31563;51.744;8.252;2022-12-07T09:01:54;3.75;;;1.92;;
45842;SDS011;31563;51.744;8.252;2022-12-07T09:04:22;2.35;;;1.42;;
45842;SDS011;31563;51.744;8.252;2022-12-07T09:06:51;3.00;;;1.30;;
45842;SDS011;31563;51.744;8.252;2022-12-07T09:09:20;1.67;;;1.00;;
45842;SDS011;31563;51.744;8.252;2022-12-07T09:11:48;2.15;;;1.10;;
45842;SDS011;31563;51.744;8.252;2022-12-07T09:14:17;2.83;;;1.27;;
45842;SDS011;31563;51.744;8.252;2022-12-07T09:16:45;2.65;;;1.20;;
45842;SDS011;31563;51.744;8.252;2022-12-07T09:19:15;3.83;;;1.08;;
45842;SDS011;31563;51.744;8.252;2022-12-07T09:21:43;3.03;;;1.27;;
45842;SDS011;31563;51.744;8.252;2022-12-07T09:24:12;3.35;;;1.30;;
45842;SDS011;31563;51.744;8.252;2022-12-07T09:26:40;2.55;;;1.15;;
45842;SDS011;31563;51.744;8.252;2022-12-07T09:29:08;2.00;;;1.40;;
45842;SDS011;31563;51.744;8.252;2022-12-07T09:31:37;3.20;;;1.30;;
45842;SDS011;31563;51.744;8.252;2022-12-07T09:34:05;2.25;;;1.00;;
45842;SDS011;31563;51.744;8.252;2022-12-07T09:36:36;2.78;;;1.20;;
45842;SDS011;31563;51.744;8.252;2022-12-07T09:39:04;3.95;;;1.45;;
45842;SDS011;31563;51.744;8.252;2022-12-07T09:41:32;3.50;;;1.10;;
45842;SDS011;31563;51.744;8.252;2022-12-07T09:44:03;2.70;;;1.00;;
45842;SDS011;31563;51.744;8.252;2022-12-07T09:46:34;4.07;;;1.63;;
45842;SDS011;31563;51.744;8.252;2022-12-07T09:49:05;2.10;;;1.33;;
45842;SDS011;31563;51.744;8.252;2022-12-07T09:51:33;1.92;;;0.93;;
45842;SDS011;31563;51.744;8.252;2022-12-07T09:54:03;2.78;;;1.38;;
45842;SDS011;31563;51.744;8.252;2022-12-07T09:56:32;2.80;;;1.05;;
45842;SDS011;31563;51.744;8.252;2022-12-07T09:59:01;3.53;;;1.15;;
45842;SDS011;31563;51.744;8.252;2022-12-07T10:01:31;3.53;;;1.30;;
45842;SDS011;31563;51.744;8.252;2022-12-07T10:06:35;3.05;;;1.02;;
45842;SDS011;31563;51.744;8.252;2022-12-07T10:09:08;3.83;;;1.05;;
45842;SDS011;31563;51.744;8.252;2022-12-07T10:14:31;2.05;;;1.30;;
45842;SDS011;31563;51.744;8.252;2022-12-07T10:17:31;1.90;;;1.10;;
45842;SDS011;31563;51.744;8.252;2022-12-07T10:20:08;4.60;;;1.00;;
45842;SDS011;31563;51.744;8.252;2022-12-07T10:23:00;2.22;;;1.13;;
45842;SDS011;31563;51.744;8.252;2022-12-07T10:25:31;1.77;;;1.10;;
45842;SDS011;31563;51.744;8.252;2022-12-07T10:28:02;2.70;;;0.93;;
45842;SDS011;31563;51.744;8.252;2022-12-07T10:30:46;2.55;;;0.98;;
45842;SDS011;31563;51.744;8.252;2022-12-07T10:33:27;2.47;;;1.20;;
45842;SDS011;31563;51.744;8.252;2022-12-07T10:35:57;3.30;;;0.98;;
45842;SDS011;31563;51.744;8.252;2022-12-07T10:38:28;2.40;;;1.00;;
45842;SDS011;31563;51.744;8.252;2022-12-07T10:41:05;2.92;;;0.95;;
45842;SDS011;31563;51.744;8.252;2022-12-07T10:43:35;2.75;;;0.98;;
45842;SDS011;31563;51.744;8.252;2022-12-07T10:46:16;2.50;;;1.00;;
45842;SDS011;31563;51.744;8.252;2022-12-07T10:49:22;2.20;;;1.02;;
45842;SDS011;31563;51.744;8.252;2022-12-07T10:52:06;2.13;;;0.90;;
45842;SDS011;31563;51.744;8.252;2022-12-07T10:54:44;3.85;;;1.20;;
45842;SDS011;31563;51.744;8.252;2022-12-07T10:57:27;2.05;;;0.80;;
45842;SDS011;31563;51.744;8.252;2022-12-07T11:00:09;3.17;;;1.10;;
45842;SDS011;31563;51.744;8.252;2022-12-07T11:02:50;2.20;;;0.80;;
45842;SDS011;31563;51.744;8.252;2022-12-07T11:05:39;2.40;;;1.08;;
45842;SDS011;31563;51.744;8.252;2022-12-07T11:08:13;2.58;;;0.80;;
45842;SDS011;31563;51.744;8.252;2022-12-07T11:10:52;1.27;;;0.60;;
45842;SDS011;31563;51.744;8.252;2022-12-07T11:13:28;1.98;;;0.82;;
45842;SDS011;31563;51.744;8.252;2022-12-07T11:16:08;1.67;;;0.80;;
45842;SDS011;31563;51.744;8.252;2022-12-07T11:18:51;2.22;;;0.90;;
45842;SDS011;31563;51.744;8.252;2022-12-07T11:21:30;2.53;;;1.02;;
45842;SDS011;31563;51.744;8.252;2022-12-07T11:24:06;2.40;;;1.05;;
45842;SDS011;31563;51.744;8.252;2022-12-07T11:26:46;1.42;;;0.80;;
45842;SDS011;31563;51.744;8.252;2022-12-07T11:29:27;1.45;;;0.80;;
45842;SDS011;31563;51.744;8.252;2022-12-07T11:32:04;4.93;;;0.88;;
45842;SDS011;31563;51.744;8.252;2022-12-07T11:34:43;2.05;;;0.77;;
45842;SDS011;31563;51.744;8.252;2022-12-07T11:37:19;2.03;;;0.85;;
45842;SDS011;31563;51.744;8.252;2022-12-07T11:39:53;2.10;;;1.10;;
45842;SDS011;31563;51.744;8.252;2022-12-07T11:42:26;2.33;;;0.65;;
45842;SDS011;31563;51.744;8.252;2022-12-07T11:44:59;1.80;;;0.80;;
45842;SDS011;31563;51.744;8.252;2022-12-07T11:47:36;1.98;;;1.00;;
45842;SDS011;31563;51.744;8.252;2022-12-07T11:50:13;2.13;;;0.80;;
45842;SDS011;31563;51.744;8.252;2022-12-07T11:52:54;1.67;;;0.93;;
45842;SDS011;31563;51.744;8.252;2022-12-07T11:55:26;1.75;;;0.98;;
45842;SDS011;31563;51.744;8.252;2022-12-07T11:58:17;1.58;;;0.75;;
45842;SDS011;31563;51.744;8.252;2022-12-07T12:01:05;1.55;;;0.65;;
45842;SDS011;31563;51.744;8.252;2022-12-07T12:03:42;1.50;;;0.90;;
45842;SDS011;31563;51.744;8.252;2022-12-07T12:06:18;1.70;;;0.63;;
45842;SDS011;31563;51.744;8.252;2022-12-07T12:08:48;2.13;;;0.77;;
45842;SDS011;31563;51.744;8.252;2022-12-07T12:11:47;1.80;;;0.90;;
45842;SDS011;31563;51.744;8.252;2022-12-07T12:14:51;4.13;;;1.00;;
45842;SDS011;31563;51.744;8.252;2022-12-07T12:17:35;2.65;;;0.70;;
45842;SDS011;31563;51.744;8.252;2022-12-07T12:20:19;1.23;;;0.65;;
45842;SDS011;31563;51.744;8.252;2022-12-07T12:22:52;2.17;;;0.60;;
45842;SDS011;31563;51.744;8.252;2022-12-07T12:25:26;1.83;;;0.65;;
45842;SDS011;31563;51.744;8.252;2022-12-07T12:27:57;1.30;;;0.70;;
45842;SDS011;31563;51.744;8.252;2022-12-07T12:30:31;1.60;;;0.80;;
45842;SDS011;31563;51.744;8.252;2022-12-07T12:33:02;2.22;;;1.00;;
45842;SDS011;31563;51.744;8.252;2022-12-07T12:35:33;2.80;;;0.80;;
45842;SDS011;31563;51.744;8.252;2022-12-07T12:41:01;1.98;;;0.68;;
45842;SDS011;31563;51.744;8.252;2022-12-07T12:43:49;3.90;;;0.80;;
45842;SDS011;31563;51.744;8.252;2022-12-07T12:55:19;1.48;;;0.73;;
45842;SDS011;31563;51.744;8.252;2022-12-07T13:04:02;1.75;;;0.65;;
45842;SDS011;31563;51.744;8.252;2022-12-07T13:06:41;2.10;;;0.77;;
45842;SDS011;31563;51.744;8.252;2022-12-07T13:09:17;1.17;;;0.55;;
45842;SDS011;31563;51.744;8.252;2022-12-07T13:11:49;3.22;;;0.73;;
45842;SDS011;31563;51.744;8.252;2022-12-07T13:23:12;1.47;;;0.70;;
45842;SDS011;31563;51.744;8.252;2022-12-07T13:28:44;2.63;;;0.95;;
45842;SDS011;31563;51.744;8.252;2022-12-07T13:31:25;2.63;;;0.70;;
45842;SDS011;31563;51.744;8.252;2022-12-07T13:34:05;1.63;;;0.70;;
45842;SDS011;31563;51.744;8.252;2022-12-07T13:36:57;1.75;;;0.65;;
45842;SDS011;31563;51.744;8.252;2022-12-07T13:39:27;1.40;;;0.50;;
45842;SDS011;31563;51.744;8.252;2022-12-07T13:41:56;2.25;;;0.60;;
45842;SDS011;31563;51.744;8.252;2022-12-07T13:44:27;3.05;;;0.60;;
45842;SDS011;31563;51.744;8.252;2022-12-07T13:47:10;1.92;;;0.70;;
45842;SDS011;31563;51.744;8.252;2022-12-07T13:49:46;2.17;;;0.57;;
45842;SDS011;31563;51.744;8.252;2022-12-07T13:52:21;1.50;;;0.60;;
45842;SDS011;31563;51.744;8.252;2022-12-07T13:54:55;2.53;;;0.80;;
45842;SDS011;31563;51.744;8.252;2022-12-07T13:57:25;1.50;;;0.52;;
45842;SDS011;31563;51.744;8.252;2022-12-07T13:59:54;1.52;;;0.68;;
45842;SDS011;31563;51.744;8.252;2022-12-07T14:02:24;2.47;;;0.60;;
45842;SDS011;31563;51.744;8.252;2022-12-07T14:05:07;1.58;;;0.50;;
45842;SDS011;31563;51.744;8.252;2022-12-07T14:07:47;1.67;;;0.82;;
45842;SDS011;31563;51.744;8.252;2022-12-07T14:10:24;1.25;;;0.60;;
45842;SDS011;31563;51.744;8.252;2022-12-07T14:12:53;1.90;;;1.02;;
45842;SDS011;31563;51.744;8.252;2022-12-07T14:15:23;1.92;;;0.80;;
45842;SDS011;31563;51.744;8.252;2022-12-07T14:17:54;1.17;;;0.55;;
45842;SDS011;31563;51.744;8.252;2022-12-07T14:20:30;2.75;;;0.75;;
45842;SDS011;31563;51.744;8.252;2022-12-07T14:23:00;2.33;;;0.80;;
45842;SDS011;31563;51.744;8.252;2022-12-07T14:25:44;2.67;;;0.60;;
45842;SDS011;31563;51.744;8.252;2022-12-07T14:28:24;2.78;;;1.00;;
45842;SDS011;31563;51.744;8.252;2022-12-07T14:30:54;2.30;;;0.95;;
45842;SDS011;31563;51.744;8.252;2022-12-07T14:33:22;2.72;;;0.80;;
45842;SDS011;31563;51.744;8.252;2022-12-07T14:35:52;2.50;;;0.80;;
45842;SDS011;31563;51.744;8.252;2022-12-07T14:43:20;1.45;;;0.57;;
45842;SDS011;31563;51.744;8.252;2022-12-07T14:45:48;1.75;;;0.73;;
45842;SDS011;31563;51.744;8.252;2022-12-07T14:48:17;2.50;;;0.85;;
45842;SDS011;31563;51.744;8.252;2022-12-07T14:51:05;2.05;;;0.60;;
45842;SDS011;31563;51.744;8.252;2022-12-07T14:53:57;2.25;;;0.65;;
45842;SDS011;31563;51.744;8.252;2022-12-07T14:56:25;2.58;;;0.77;;
45842;SDS011;31563;51.744;8.252;2022-12-07T14:58:54;1.63;;;0.73;;
45842;SDS011;31563;51.744;8.252;2022-12-07T15:01:22;2.10;;;0.77;;
45842;SDS011;31563;51.744;8.252;2022-12-07T15:03:50;3.70;;;0.80;;
45842;SDS011;31563;51.744;8.252;2022-12-07T15:06:19;1.67;;;0.60;;
45842;SDS011;31563;51.744;8.252;2022-12-07T15:08:47;2.45;;;1.08;;
45842;SDS011;31563;51.744;8.252;2022-12-07T15:11:17;1.63;;;0.73;;
45842;SDS011;31563;51.744;8.252;2022-12-07T15:13:45;2.33;;;0.68;;
45842;SDS011;31563;51.744;8.252;2022-12-07T15:16:31;2.28;;;0.70;;
45842;SDS011;31563;51.744;8.252;2022-12-07T15:19:20;1.85;;;0.60;;
45842;SDS011;31563;51.744;8.252;2022-12-07T15:21:54;1.45;;;0.50;;
45842;SDS011;31563;51.744;8.252;2022-12-07T15:24:23;3.38;;;0.65;;
45842;SDS011;31563;51.744;8.252;2022-12-07T15:26:53;2.22;;;0.88;;
45842;SDS011;31563;51.744;8.252;2022-12-07T15:29:21;1.73;;;0.70;;
45842;SDS011;31563;51.744;8.252;2022-12-07T15:31:49;2.03;;;0.55;;
45842;SDS011;31563;51.744;8.252;2022-12-07T15:34:23;1.83;;;0.50;;
45842;SDS011;31563;51.744;8.252;2022-12-07T15:36:52;3.08;;;1.35;;
45842;SDS011;31563;51.744;8.252;2022-12-07T15:39:21;2.35;;;0.60;;
45842;SDS011;31563;51.744;8.252;2022-12-07T15:41:49;1.55;;;0.70;;
45842;SDS011;31563;51.744;8.252;2022-12-07T15:44:19;0.93;;;0.57;;
45842;SDS011;31563;51.744;8.252;2022-12-07T15:47:05;1.85;;;0.80;;
45842;SDS011;31563;51.744;8.252;2022-12-07T15:49:33;0.88;;;0.43;;
45842;SDS011;31563;51.744;8.252;2022-12-07T15:52:02;3.30;;;0.70;;
45842;SDS011;31563;51.744;8.252;2022-12-07T15:54:30;2.28;;;0.57;;
45842;SDS011;31563;51.744;8.252;2022-12-07T15:56:59;1.80;;;0.68;;
45842;SDS011;31563;51.744;8.252;2022-12-07T15:59:29;1.58;;;0.70;;
45842;SDS011;31563;51.744;8.252;2022-12-07T16:01:57;2.10;;;0.60;;
45842;SDS011;31563;51.744;8.252;2022-12-07T16:04:26;1.38;;;0.68;;
45842;SDS011;31563;51.744;8.252;2022-12-07T16:06:55;1.15;;;0.57;;
45842;SDS011;31563;51.744;8.252;2022-12-07T16:09:24;1.65;;;0.60;;
45842;SDS011;31563;51.744;8.252;2022-12-07T16:11:53;1.67;;;0.65;;